Time;durP1;ratioP1;P1;durP2;ratioP2;P2;SDS_P1;SDS_P2;PMS_P1;PMS_P2;Temp;Humidity;BMP_temperature;BMP_pressure;BME280_temperature;BME280_humidity;BME280_pressure;Samples;Min_cycle;Max_cycle;Signal;HPM_P1;HPM_P2
2022/09/27 00:02:00;;;;;;;7.97;2.00;;;10.10;99.90;;;;;;5050573;28;20119;-65
2022/09/27 00:04:26;;;;;;;10.88;2.60;;;10.10;99.90;;;;;;5050564;28;20336;-72
2022/09/27 00:06:52;;;;;;;3.50;1.85;;;10.10;99.90;;;;;;5051180;28;20044;-71
2022/09/27 00:09:18;;;;;;;4.28;2.05;;;10.00;99.90;;;;;;5049761;28;20017;-67
2022/09/27 00:11:44;;;;;;;3.97;2.00;;;10.10;99.90;;;;;;5051290;28;20037;-54
2022/09/27 00:14:14;;;;;;;5.47;2.00;;;10.10;99.90;;;;;;5050588;28;20048;-58
2022/09/27 00:16:41;;;;;;;5.07;2.42;;;10.10;99.90;;;;;;5050255;28;20531;-52
2022/09/27 00:19:13;;;;;;;8.27;2.00;;;10.00;99.90;;;;;;5051198;28;20353;-57
2022/09/27 00:21:40;;;;;;;4.75;1.92;;;10.10;99.90;;;;;;5052031;28;20028;-60
2022/09/27 00:24:06;;;;;;;7.57;1.85;;;10.10;99.90;;;;;;5050826;28;20406;-58
2022/09/27 00:26:31;;;;;;;3.03;1.70;;;10.10;99.90;;;;;;5050489;28;20022;-57
2022/09/27 00:28:58;;;;;;;7.25;2.00;;;10.10;99.90;;;;;;5050506;28;20032;-62
2022/09/27 00:31:28;;;;;;;4.88;1.60;;;10.00;99.90;;;;;;5050277;28;20033;-63
2022/09/27 00:33:56;;;;;;;2.95;1.38;;;10.00;99.90;;;;;;5051146;28;20143;-59
2022/09/27 00:36:23;;;;;;;3.22;1.35;;;10.00;99.90;;;;;;5049609;28;20029;-57
2022/09/27 00:38:49;;;;;;;5.80;1.73;;;10.00;99.90;;;;;;5050462;28;20028;-58
2022/09/27 00:41:20;;;;;;;4.82;1.80;;;10.00;99.90;;;;;;5052284;28;20033;-60
2022/09/27 00:43:58;;;;;;;2.80;1.50;;;10.00;99.90;;;;;;5052534;28;20025;-61
2022/09/27 00:46:41;;;;;;;8.20;1.85;;;9.90;99.90;;;;;;5054114;28;20469;-58
2022/09/27 00:49:28;;;;;;;4.68;1.67;;;9.90;99.90;;;;;;5054023;28;20160;-65
2022/09/27 00:52:01;;;;;;;7.53;2.00;;;9.90;99.90;;;;;;5053927;28;20040;-70
2022/09/27 00:54:28;;;;;;;6.60;1.95;;;9.80;99.90;;;;;;5054068;28;20132;-66
2022/09/27 00:56:54;;;;;;;2.25;1.30;;;9.80;99.90;;;;;;5053989;28;20029;-68
2022/09/27 00:59:32;;;;;;;4.68;1.33;;;9.80;99.90;;;;;;5053460;28;20025;-71
2022/09/27 01:01:58;;;;;;;5.88;2.15;;;9.80;99.90;;;;;;5054632;28;20056;-65
2022/09/27 01:04:28;;;;;;;7.38;1.63;;;9.80;99.90;;;;;;5053208;28;20049;-71
2022/09/27 01:06:53;;;;;;;4.47;0.95;;;9.80;99.90;;;;;;5054282;28;20033;-68
2022/09/27 01:09:20;;;;;;;2.85;1.20;;;9.70;99.90;;;;;;5053396;28;20032;-61
2022/09/27 01:12:04;;;;;;;3.58;0.90;;;9.70;99.90;;;;;;5053347;28;20040;-68
2022/09/27 01:14:55;;;;;;;4.78;1.10;;;9.80;99.90;;;;;;5053760;28;20741;-65
2022/09/27 01:17:47;;;;;;;1.67;0.80;;;9.70;99.90;;;;;;5053452;28;20021;-61
2022/09/27 01:20:38;;;;;;;7.22;1.13;;;9.70;99.90;;;;;;5052854;28;20036;-57
2022/09/27 01:23:13;;;;;;;5.47;0.93;;;9.80;99.90;;;;;;5053900;28;20025;-58
2022/09/27 01:26:03;;;;;;;3.83;0.90;;;9.80;99.90;;;;;;5053276;28;20310;-58
2022/09/27 01:28:55;;;;;;;1.08;0.60;;;9.80;99.90;;;;;;5053139;28;20086;-58
2022/09/27 01:31:48;;;;;;;3.88;0.75;;;9.80;99.90;;;;;;5053111;28;20086;-58
2022/09/27 01:34:42;;;;;;;4.50;0.80;;;9.80;99.90;;;;;;5052466;28;20075;-59
2022/09/27 01:37:34;;;;;;;1.05;0.50;;;9.80;99.90;;;;;;5053501;28;20036;-62
2022/09/27 01:40:05;;;;;;;;;;;9.90;99.90;;;;;;5053608;28;20049;-59
2022/09/27 01:42:39;;;;;;;1.92;0.55;;;9.80;99.90;;;;;;5052986;28;19905;-65
2022/09/27 01:45:20;;;;;;;3.75;0.65;;;9.80;99.90;;;;;;5053201;28;20025;-61
2022/09/27 01:48:08;;;;;;;2.72;0.70;;;9.80;99.90;;;;;;5052650;28;20021;-58
2022/09/27 01:50:51;;;;;;;2.40;0.70;;;9.80;99.90;;;;;;5052356;28;20044;-67
2022/09/27 01:53:31;;;;;;;1.08;0.73;;;9.80;99.90;;;;;;5052007;28;20125;-68
2022/09/27 01:56:03;;;;;;;2.05;1.13;;;9.90;99.90;;;;;;5053053;28;20025;-65
2022/09/27 01:58:56;;;;;;;1.88;0.82;;;9.90;99.90;;;;;;5052758;28;20470;-65
2022/09/27 02:01:25;;;;;;;2.95;1.02;;;9.90;99.90;;;;;;5052064;28;20052;-56
2022/09/27 02:03:53;;;;;;;4.10;1.08;;;9.90;99.90;;;;;;5052885;28;20021;-54
2022/09/27 02:06:27;;;;;;;4.55;1.35;;;9.80;99.90;;;;;;5052452;28;20029;-57
2022/09/27 02:09:22;;;;;;;2.28;1.15;;;9.80;99.90;;;;;;5052576;28;20402;-71
2022/09/27 02:12:02;;;;;;;1.73;1.08;;;9.70;99.90;;;;;;5052809;28;20045;-72
2022/09/27 02:14:32;;;;;;;1.67;0.98;;;9.70;99.90;;;;;;5052314;28;20389;-70
2022/09/27 02:17:15;;;;;;;3.03;1.00;;;9.60;99.90;;;;;;5052812;28;20025;-60
2022/09/27 02:19:53;;;;;;;2.63;0.90;;;9.50;99.90;;;;;;5052877;28;20025;-53
2022/09/27 02:22:46;;;;;;;2.03;1.20;;;9.50;99.90;;;;;;5051486;28;20818;-57
2022/09/27 02:25:33;;;;;;;3.45;0.93;;;9.40;99.90;;;;;;5052936;28;20087;-55
2022/09/27 02:28:18;;;;;;;1.95;0.90;;;9.30;99.90;;;;;;5052845;28;20051;-58
2022/09/27 02:30:44;;;;;;;7.22;1.13;;;9.30;99.90;;;;;;5053556;28;20489;-67
2022/09/27 02:33:10;;;;;;;1.00;0.95;;;9.20;99.90;;;;;;5052560;28;20052;-58
2022/09/27 02:35:35;;;;;;;3.30;1.33;;;9.10;99.90;;;;;;5052299;28;20027;-60
2022/09/27 02:38:03;;;;;;;3.45;1.15;;;9.10;99.90;;;;;;5052273;28;20028;-63
2022/09/27 02:40:32;;;;;;;1.95;1.00;;;9.00;99.90;;;;;;5051925;28;20032;-60
2022/09/27 02:42:59;;;;;;;6.03;2.00;;;9.00;99.90;;;;;;5051739;28;20025;-56
2022/09/27 02:45:30;;;;;;;1.42;0.80;;;8.90;99.90;;;;;;5051955;28;20436;-64
2022/09/27 02:47:58;;;;;;;2.63;1.10;;;8.90;99.90;;;;;;5052528;28;20061;-57
2022/09/27 02:50:51;;;;;;;3.13;1.17;;;8.90;99.90;;;;;;5050876;28;20021;-65
2022/09/27 02:53:44;;;;;;;5.07;0.90;;;8.90;99.90;;;;;;5051298;28;20085;-61
2022/09/27 02:56:28;;;;;;;3.97;1.13;;;8.80;99.90;;;;;;5051742;28;20500;-61
2022/09/27 02:59:16;;;;;;;2.22;0.90;;;8.80;99.90;;;;;;5052135;28;20021;-62
2022/09/27 03:01:58;;;;;;;2.88;0.90;;;8.80;99.90;;;;;;5051860;28;20519;-56
2022/09/27 03:04:54;;;;;;;3.35;1.20;;;8.80;99.90;;;;;;5050397;28;20131;-56
2022/09/27 03:07:21;;;;;;;1.80;0.88;;;8.80;99.90;;;;;;5050177;28;20102;-62
2022/09/27 03:09:49;;;;;;;5.55;1.25;;;8.80;99.90;;;;;;5051975;28;20116;-64
2022/09/27 03:12:24;;;;;;;3.50;1.40;;;8.80;99.90;;;;;;5050630;28;20032;-61
2022/09/27 03:14:57;;;;;;;7.60;1.30;;;8.70;99.90;;;;;;5050665;28;20470;-68
2022/09/27 03:17:23;;;;;;;8.80;1.30;;;8.70;99.90;;;;;;5051319;28;20040;-67
2022/09/27 03:19:49;;;;;;;2.05;0.80;;;8.70;99.90;;;;;;5051126;28;20025;-66
2022/09/27 03:22:15;;;;;;;2.13;1.10;;;8.70;99.90;;;;;;5051266;28;20103;-70
2022/09/27 03:24:40;;;;;;;5.90;0.80;;;8.70;99.90;;;;;;5050999;28;20021;-68
2022/09/27 03:27:06;;;;;;;1.38;0.63;;;8.70;99.90;;;;;;5051541;28;20083;-59
2022/09/27 03:29:32;;;;;;;2.53;1.10;;;8.70;99.90;;;;;;5051431;28;20040;-67
2022/09/27 03:31:57;;;;;;;3.42;1.38;;;8.70;99.90;;;;;;5050875;28;20028;-67
2022/09/27 03:34:23;;;;;;;4.80;1.35;;;8.70;99.90;;;;;;5051049;28;20103;-66
2022/09/27 03:36:49;;;;;;;2.60;1.02;;;8.80;99.90;;;;;;5051665;28;20025;-67
2022/09/27 03:39:14;;;;;;;4.57;1.10;;;8.80;99.90;;;;;;5050097;28;20024;-71
2022/09/27 03:41:40;;;;;;;1.17;0.82;;;8.80;99.90;;;;;;5051392;28;20025;-72
2022/09/27 03:44:06;;;;;;;4.57;1.00;;;8.80;99.90;;;;;;5051037;28;20021;-69
2022/09/27 03:46:32;;;;;;;1.75;0.95;;;8.80;99.90;;;;;;5050485;28;20052;-69
2022/09/27 03:48:57;;;;;;;3.15;0.80;;;8.70;99.90;;;;;;5051191;28;20029;-60
2022/09/27 03:51:23;;;;;;;2.47;0.60;;;8.70;99.90;;;;;;5050644;28;20044;-58
2022/09/27 03:53:48;;;;;;;3.33;0.90;;;8.70;99.90;;;;;;5049284;28;20509;-62
2022/09/27 03:56:14;;;;;;;2.55;0.80;;;8.70;99.90;;;;;;5050894;28;20031;-61
2022/09/27 03:58:39;;;;;;;1.70;0.80;;;8.60;99.90;;;;;;5051113;28;20024;-55
2022/09/27 04:01:05;;;;;;;3.30;0.95;;;8.60;99.90;;;;;;5050329;28;20040;-64
2022/09/27 04:03:31;;;;;;;5.15;0.80;;;8.60;99.90;;;;;;5050745;28;20104;-65
2022/09/27 04:05:59;;;;;;;3.92;1.00;;;8.60;99.90;;;;;;5083197;28;20036;-65
2022/09/27 04:08:25;;;;;;;3.67;0.85;;;8.60;99.90;;;;;;5050375;28;20024;-62
2022/09/27 04:10:50;;;;;;;4.25;0.88;;;8.60;99.90;;;;;;5051018;28;20374;-63
2022/09/27 04:13:16;;;;;;;1.42;0.80;;;8.50;99.90;;;;;;5050611;28;20473;-65
2022/09/27 04:15:42;;;;;;;3.63;1.02;;;8.50;99.90;;;;;;5052743;28;20067;-69
2022/09/27 04:18:07;;;;;;;3.33;1.10;;;8.50;99.90;;;;;;5054896;28;20029;-59
2022/09/27 04:20:35;;;;;;;1.23;0.75;;;8.50;99.90;;;;;;5054555;28;20024;-65
2022/09/27 04:23:01;;;;;;;2.45;1.30;;;8.50;99.90;;;;;;5052905;28;20029;-61
2022/09/27 04:25:26;;;;;;;4.47;1.33;;;8.50;99.90;;;;;;5054553;28;20021;-56
2022/09/27 04:27:53;;;;;;;4.45;1.33;;;8.50;99.90;;;;;;5054152;28;20028;-56
2022/09/27 04:30:20;;;;;;;3.38;0.85;;;8.50;99.90;;;;;;5054431;28;20393;-54
2022/09/27 04:32:46;;;;;;;4.80;1.25;;;8.40;99.90;;;;;;5054620;28;20067;-51
2022/09/27 04:37:57;;;;;;;3.13;1.67;;;8.50;99.90;;;;;;5045123;28;20071;-57
2022/09/27 04:40:23;;;;;;;5.65;1.15;;;8.40;99.90;;;;;;5053264;28;20028;-62
2022/09/27 04:42:49;;;;;;;2.47;0.60;;;8.50;99.90;;;;;;5052611;28;20029;-59
2022/09/27 04:45:16;;;;;;;3.72;1.08;;;8.40;99.90;;;;;;5052816;28;20048;-62
2022/09/27 04:47:46;;;;;;;4.40;0.85;;;8.50;99.90;;;;;;5051689;28;20029;-60
2022/09/27 04:50:12;;;;;;;1.98;0.82;;;8.50;99.90;;;;;;5050085;28;20070;-58
2022/09/27 04:52:39;;;;;;;2.50;1.00;;;8.50;99.90;;;;;;5051693;28;20419;-56
2022/09/27 04:55:06;;;;;;;1.98;0.80;;;8.50;99.90;;;;;;5057163;28;20025;-58
2022/09/27 04:57:31;;;;;;;2.50;0.70;;;8.60;99.90;;;;;;5050463;28;20075;-55
2022/09/27 04:59:59;;;;;;;3.67;0.98;;;8.60;99.90;;;;;;5056401;28;20032;-62
2022/09/27 05:02:27;;;;;;;3.30;1.30;;;8.60;99.90;;;;;;5053881;28;20020;-61
2022/09/27 05:04:59;;;;;;;6.60;1.30;;;8.50;99.90;;;;;;5053571;28;20024;-56
2022/09/27 05:07:28;;;;;;;2.65;0.90;;;8.50;99.90;;;;;;5053651;28;20029;-63
2022/09/27 05:09:54;;;;;;;3.15;1.00;;;8.50;99.90;;;;;;5054035;28;20029;-54
2022/09/27 05:12:20;;;;;;;3.15;1.23;;;8.40;99.90;;;;;;5052781;28;20037;-62
2022/09/27 05:14:46;;;;;;;4.25;1.48;;;8.40;99.90;;;;;;5053984;28;20381;-66
2022/09/27 05:17:12;;;;;;;2.85;0.77;;;8.40;99.90;;;;;;5052883;28;20530;-64
2022/09/27 05:19:38;;;;;;;4.03;1.08;;;8.40;99.90;;;;;;5042431;28;20542;-61
2022/09/27 05:22:04;;;;;;;4.10;1.00;;;8.30;99.90;;;;;;5053741;28;20362;-56
2022/09/27 05:24:31;;;;;;;2.75;1.10;;;8.40;99.90;;;;;;5070342;28;20032;-56
2022/09/27 05:27:00;;;;;;;5.35;1.20;;;8.30;99.90;;;;;;5054878;28;20041;-60
2022/09/27 05:29:26;;;;;;;5.88;1.10;;;8.30;99.90;;;;;;5053132;28;20017;-57
2022/09/27 05:31:52;;;;;;;3.03;0.85;;;8.30;99.90;;;;;;5053003;28;20037;-55
2022/09/27 05:34:19;;;;;;;3.00;1.00;;;8.20;99.90;;;;;;5051292;28;20029;-66
2022/09/27 05:36:48;;;;;;;7.15;1.15;;;8.20;99.90;;;;;;5043873;28;20033;-56
2022/09/27 05:39:17;;;;;;;3.47;1.33;;;8.20;99.90;;;;;;5046832;28;20017;-57
2022/09/27 05:41:43;;;;;;;4.45;1.17;;;8.20;99.90;;;;;;5052507;28;20112;-56
2022/09/27 05:44:09;;;;;;;3.88;1.38;;;8.20;99.90;;;;;;5082657;28;20190;-70
2022/09/27 05:46:34;;;;;;;4.45;1.25;;;8.20;99.90;;;;;;5050992;28;20363;-54
2022/09/27 05:49:00;;;;;;;2.97;1.02;;;8.20;99.90;;;;;;5052186;28;20036;-62
2022/09/27 05:51:27;;;;;;;3.40;1.05;;;8.20;99.90;;;;;;5052081;28;20082;-65
2022/09/27 05:53:52;;;;;;;5.07;1.40;;;8.20;99.90;;;;;;5048047;28;20077;-61
2022/09/27 05:56:18;;;;;;;3.15;0.90;;;8.20;99.90;;;;;;5048934;28;20106;-67
2022/09/27 05:58:44;;;;;;;4.03;1.20;;;8.20;99.90;;;;;;5051948;28;20029;-62
2022/09/27 06:01:09;;;;;;;8.57;1.33;;;8.20;99.90;;;;;;5052122;28;20032;-55
2022/09/27 06:03:35;;;;;;;5.75;1.20;;;8.20;99.90;;;;;;5051138;28;20032;-59
2022/09/27 06:06:04;;;;;;;6.07;1.48;;;8.20;99.90;;;;;;5051568;28;20029;-54
2022/09/27 06:08:35;;;;;;;3.13;1.23;;;8.20;99.90;;;;;;5050713;28;20378;-69
2022/09/27 06:11:03;;;;;;;2.22;0.98;;;8.20;99.90;;;;;;5052204;28;20489;-59
2022/09/27 06:13:29;;;;;;;2.28;1.02;;;8.20;99.90;;;;;;5050826;28;20040;-58
2022/09/27 06:15:55;;;;;;;2.30;1.10;;;8.30;99.90;;;;;;5051910;28;20028;-58
2022/09/27 06:18:21;;;;;;;5.75;1.00;;;8.30;99.90;;;;;;5051276;28;20026;-63
2022/09/27 06:20:46;;;;;;;9.43;1.67;;;8.40;99.90;;;;;;5053558;28;20071;-71
2022/09/27 06:23:16;;;;;;;3.42;0.90;;;8.50;99.90;;;;;;5053053;28;20108;-60
2022/09/27 06:25:41;;;;;;;4.18;1.25;;;8.60;99.90;;;;;;5055093;28;20020;-54
2022/09/27 06:28:08;;;;;;;5.65;1.27;;;8.70;99.90;;;;;;5052535;28;20035;-56
2022/09/27 06:30:41;;;;;;;8.43;1.63;;;8.80;99.90;;;;;;5050754;28;20045;-53
2022/09/27 06:33:10;;;;;;;9.25;2.08;;;8.90;99.90;;;;;;5051968;28;20112;-52
2022/09/27 06:35:36;;;;;;;6.85;1.52;;;9.00;99.90;;;;;;5051806;28;20013;-51
2022/09/27 06:38:03;;;;;;;2.38;1.27;;;9.00;99.90;;;;;;5051179;28;20534;-55
2022/09/27 06:40:29;;;;;;;5.18;1.05;;;9.10;99.90;;;;;;5050774;28;20048;-52
2022/09/27 06:43:08;;;;;;;2.97;1.30;;;9.10;99.90;;;;;;5051490;28;20401;-50
2022/09/27 06:45:35;;;;;;;2.60;1.08;;;9.10;99.90;;;;;;5051974;28;20017;-55
2022/09/27 06:48:02;;;;;;;6.80;1.45;;;9.20;99.90;;;;;;5052152;28;20017;-55
2022/09/27 06:50:32;;;;;;;3.35;1.63;;;9.20;99.90;;;;;;5051046;28;20461;-61
2022/09/27 06:52:58;;;;;;;4.30;1.65;;;9.30;99.90;;;;;;5051826;28;20045;-57
2022/09/27 06:55:24;;;;;;;2.97;1.50;;;9.40;99.90;;;;;;5051362;28;20033;-59
2022/09/27 07:00:47;;;;;;;1.75;1.10;;;9.60;99.90;;;;;;5052035;28;20040;-60
2022/09/27 07:03:13;;;;;;;3.60;1.33;;;9.60;99.90;;;;;;5050416;28;20032;-67
2022/09/27 07:05:43;;;;;;;4.63;1.50;;;9.60;99.90;;;;;;5051652;28;20029;-56
2022/09/27 07:08:10;;;;;;;1.95;0.88;;;9.50;99.90;;;;;;5051841;28;20028;-62
2022/09/27 07:10:37;;;;;;;4.25;0.98;;;9.50;99.90;;;;;;5050988;28;20051;-56
2022/09/27 07:13:07;;;;;;;4.03;1.25;;;9.50;99.90;;;;;;5051487;28;20025;-56
2022/09/27 07:15:39;;;;;;;2.90;0.90;;;9.50;99.90;;;;;;5051339;28;20393;-55
2022/09/27 07:18:06;;;;;;;5.25;1.15;;;9.70;99.90;;;;;;5050582;28;20025;-60
2022/09/27 07:20:32;;;;;;;3.25;1.20;;;9.80;99.90;;;;;;5051575;28;20021;-64
2022/09/27 07:22:58;;;;;;;2.20;1.02;;;9.90;99.90;;;;;;5051429;28;20021;-53
2022/09/27 07:25:25;;;;;;;1.70;0.90;;;10.00;99.90;;;;;;5050556;28;20074;-55
2022/09/27 07:27:54;;;;;;;4.68;1.10;;;10.10;99.90;;;;;;5051505;28;20092;-59
2022/09/27 07:30:20;;;;;;;1.98;0.90;;;10.20;99.90;;;;;;5051053;28;20449;-52
2022/09/27 07:32:46;;;;;;;2.20;1.02;;;10.20;99.90;;;;;;5050763;28;20047;-58
2022/09/27 07:35:14;;;;;;;1.50;0.95;;;10.40;99.90;;;;;;5050718;28;20047;-56
2022/09/27 07:37:41;;;;;;;3.08;0.98;;;10.40;99.90;;;;;;5051190;28;20024;-58
2022/09/27 07:40:08;;;;;;;3.08;1.10;;;10.40;99.90;;;;;;5050293;28;20562;-58
2022/09/27 07:42:37;;;;;;;3.42;1.00;;;10.50;99.90;;;;;;5050912;28;20050;-60
2022/09/27 07:45:06;;;;;;;3.80;0.98;;;10.50;99.90;;;;;;5050446;28;20009;-62
2022/09/27 07:47:32;;;;;;;2.55;1.00;;;10.50;99.90;;;;;;5050938;28;20068;-57
2022/09/27 07:49:58;;;;;;;2.10;1.67;;;10.60;99.90;;;;;;5051150;28;20055;-60
2022/09/27 07:52:23;;;;;;;2.08;1.17;;;10.60;99.90;;;;;;5048687;28;20421;-56
2022/09/27 07:54:49;;;;;;;2.03;0.98;;;10.70;99.90;;;;;;5051038;28;20049;-62
2022/09/27 07:57:16;;;;;;;2.75;1.05;;;10.70;99.90;;;;;;5050845;28;20025;-64
2022/09/27 07:59:42;;;;;;;1.88;0.90;;;10.80;99.90;;;;;;5050575;28;20017;-65
2022/09/27 08:02:14;;;;;;;5.03;1.23;;;10.80;99.90;;;;;;5050845;28;20036;-62
2022/09/27 08:04:42;;;;;;;1.67;0.95;;;10.80;99.90;;;;;;5051238;28;20539;-72
2022/09/27 08:07:08;;;;;;;1.52;0.90;;;10.90;99.90;;;;;;5050306;28;20366;-62
2022/09/27 08:09:34;;;;;;;2.35;1.02;;;10.90;99.90;;;;;;5049532;28;20100;-63
2022/09/27 08:11:59;;;;;;;1.77;0.88;;;10.90;99.90;;;;;;5050810;28;20068;-62
2022/09/27 08:14:25;;;;;;;1.80;1.15;;;10.90;99.90;;;;;;5049917;28;20017;-66
2022/09/27 08:16:51;;;;;;;4.40;1.20;;;10.90;99.90;;;;;;5051416;28;20033;-66
2022/09/27 08:19:18;;;;;;;5.60;1.23;;;10.90;99.90;;;;;;5050382;28;20876;-70
2022/09/27 08:21:44;;;;;;;3.65;1.45;;;11.00;99.90;;;;;;5050472;28;20059;-67
2022/09/27 08:24:10;;;;;;;2.90;1.02;;;11.10;99.90;;;;;;5050365;28;20052;-54
2022/09/27 08:26:35;;;;;;;2.30;0.90;;;11.20;99.90;;;;;;5050933;28;20021;-55
2022/09/27 08:29:01;;;;;;;2.15;0.93;;;11.30;99.90;;;;;;5049929;28;20025;-53
2022/09/27 08:31:27;;;;;;;1.73;0.95;;;11.40;99.90;;;;;;5050365;28;20045;-55
2022/09/27 08:33:53;;;;;;;5.72;1.33;;;11.40;99.90;;;;;;5050762;28;20035;-52
2022/09/27 08:36:22;;;;;;;2.25;0.90;;;11.50;99.90;;;;;;5049488;28;20029;-57
2022/09/27 08:38:49;;;;;;;1.95;1.13;;;11.50;99.90;;;;;;5050731;28;20021;-54
2022/09/27 08:41:15;;;;;;;2.08;1.13;;;11.60;99.90;;;;;;5049340;28;20040;-52
2022/09/27 08:43:41;;;;;;;1.65;0.80;;;11.80;99.90;;;;;;5050646;28;20032;-55
2022/09/27 08:46:12;;;;;;;2.35;0.68;;;11.90;99.90;;;;;;5050478;28;20057;-54
2022/09/27 08:48:38;;;;;;;2.40;0.70;;;12.00;99.90;;;;;;5049906;28;20056;-57
2022/09/27 08:51:07;;;;;;;2.00;0.73;;;12.00;99.90;;;;;;5050340;28;20062;-57
2022/09/27 08:53:37;;;;;;;5.20;0.98;;;12.00;99.90;;;;;;5049855;28;20576;-57
2022/09/27 08:56:06;;;;;;;3.55;1.08;;;12.00;99.90;;;;;;5049763;28;20043;-57
2022/09/27 08:58:36;;;;;;;2.60;0.70;;;12.00;99.90;;;;;;5051082;28;20044;-57
2022/09/27 09:01:05;;;;;;;0.85;0.43;;;12.00;99.90;;;;;;5051375;28;20098;-56
2022/09/27 09:03:36;;;;;;;1.95;0.77;;;12.00;99.90;;;;;;5053162;28;20029;-59
2022/09/27 09:06:24;;;;;;;3.63;0.95;;;12.00;99.90;;;;;;5054162;28;20020;-60
2022/09/27 09:08:55;;;;;;;1.77;0.77;;;12.00;99.90;;;;;;5053936;28;20391;-55
2022/09/27 09:14:33;;;;;;;2.35;0.90;;;12.00;99.90;;;;;;5053421;28;20444;-63
2022/09/27 09:17:13;;;;;;;2.92;1.35;;;12.00;99.90;;;;;;5053392;28;20511;-62
2022/09/27 09:19:58;;;;;;;1.93;1.20;;;12.10;99.90;;;;;;5053699;28;20028;-68
2022/09/27 09:22:30;;;;;;;4.28;1.20;;;12.10;99.90;;;;;;5053410;28;20282;-62
2022/09/27 09:25:01;;;;;;;1.65;1.05;;;12.10;99.90;;;;;;5052940;28;20033;-65
2022/09/27 09:27:27;;;;;;;;;;;12.10;99.90;;;;;;5053692;28;20041;-61
2022/09/27 09:30:04;;;;;;;1.90;1.05;;;12.10;99.90;;;;;;5053837;28;19958;-52
2022/09/27 09:32:48;;;;;;;2.28;1.30;;;12.10;99.90;;;;;;5052645;28;20037;-57
2022/09/27 09:35:40;;;;;;;1.83;1.38;;;12.20;99.90;;;;;;5053065;28;20443;-55
2022/09/27 09:38:14;;;;;;;4.20;1.55;;;12.20;99.90;;;;;;5052673;28;20052;-58
2022/09/27 09:40:50;;;;;;;3.05;1.67;;;12.10;99.90;;;;;;5053509;28;20021;-55
2022/09/27 09:43:24;;;;;;;1.85;1.20;;;12.00;99.90;;;;;;5052907;28;20029;-59
2022/09/27 09:46:20;;;;;;;3.35;1.50;;;12.00;99.90;;;;;;5053214;28;20036;-63
2022/09/27 09:49:16;;;;;;;2.75;1.50;;;12.00;99.90;;;;;;5051440;28;20045;-63
2022/09/27 09:51:57;;;;;;;3.53;1.58;;;12.00;99.90;;;;;;5049417;28;20126;-56
2022/09/27 09:54:26;;;;;;;2.08;1.35;;;12.10;99.90;;;;;;5052655;28;20119;-63
2022/09/27 09:57:05;;;;;;;5.10;1.65;;;12.00;99.90;;;;;;5053042;28;20383;-58
2022/09/27 09:59:48;;;;;;;1.95;1.42;;;12.10;99.90;;;;;;5052092;28;20385;-62
2022/09/27 10:02:36;;;;;;;2.40;1.30;;;12.20;99.90;;;;;;5052829;28;20021;-57
2022/09/27 10:05:03;;;;;;;2.00;1.05;;;12.40;99.90;;;;;;5052986;28;20028;-63
2022/09/27 10:07:32;;;;;;;2.50;1.08;;;12.50;99.90;;;;;;5051824;28;20023;-65
2022/09/27 10:10:01;;;;;;;4.32;1.00;;;12.60;99.90;;;;;;5053187;28;20028;-64
2022/09/27 10:12:27;;;;;;;1.83;0.80;;;12.70;99.90;;;;;;5052576;28;20090;-56
2022/09/27 10:14:56;;;;;;;0.82;0.77;;;12.90;99.90;;;;;;5052633;28;20448;-64
2022/09/27 10:17:27;;;;;;;1.30;0.77;;;13.00;99.90;;;;;;5052560;28;20025;-54
2022/09/27 10:19:57;;;;;;;1.02;0.80;;;13.10;99.90;;;;;;5052074;28;20021;-59
2022/09/27 10:22:25;;;;;;;0.75;0.50;;;13.10;99.90;;;;;;5052299;28;20358;-60
2022/09/27 10:24:58;;;;;;;0.70;0.60;;;13.00;99.90;;;;;;5052846;28;20017;-68
2022/09/27 10:27:25;;;;;;;0.98;0.70;;;13.10;99.90;;;;;;5051601;28;20033;-65
2022/09/27 10:29:58;;;;;;;1.85;0.60;;;13.10;99.90;;;;;;5052760;28;20048;-54
2022/09/27 10:32:35;;;;;;;1.98;0.60;;;13.20;99.80;;;;;;5052150;28;20040;-69
2022/09/27 10:35:20;;;;;;;2.55;0.60;;;13.20;99.40;;;;;;5051954;28;20024;-59
2022/09/27 10:37:46;;;;;;;1.08;0.60;;;13.20;99.00;;;;;;5052759;28;20025;-66
2022/09/27 10:40:29;;;;;;;1.08;0.43;;;13.20;98.50;;;;;;5052313;28;20384;-61
2022/09/27 10:42:55;;;;;;;0.68;0.52;;;13.30;97.90;;;;;;5051681;28;20029;-54
2022/09/27 10:45:29;;;;;;;2.05;0.55;;;13.20;97.80;;;;;;5050438;28;20086;-55
2022/09/27 10:47:56;;;;;;;0.82;0.60;;;13.30;98.00;;;;;;5051491;28;20021;-55
2022/09/27 10:50:28;;;;;;;1.42;0.65;;;13.30;97.50;;;;;;5051705;28;20078;-54
2022/09/27 10:53:11;;;;;;;;;;;13.20;96.80;;;;;;5052136;28;20029;-50
2022/09/27 10:55:39;;;;;;;3.40;0.70;;;13.20;97.10;;;;;;5051099;28;19917;-54
2022/09/27 10:58:06;;;;;;;4.80;0.77;;;13.00;96.80;;;;;;5050638;28;20322;-55
2022/09/27 11:00:34;;;;;;;1.73;0.40;;;12.90;97.30;;;;;;5051857;28;20473;-56
2022/09/27 11:03:14;;;;;;;0.95;0.50;;;12.90;97.20;;;;;;5051153;28;20021;-56
2022/09/27 11:05:40;;;;;;;4.63;0.88;;;12.90;97.30;;;;;;5052087;28;20159;-56
2022/09/27 11:08:18;;;;;;;1.02;0.50;;;12.90;97.00;;;;;;5049881;28;20090;-53
2022/09/27 11:10:44;;;;;;;1.27;0.50;;;12.90;96.80;;;;;;5051759;28;20031;-55
2022/09/27 11:13:11;;;;;;;1.95;0.50;;;12.90;96.80;;;;;;5051639;28;20082;-54
2022/09/27 11:16:04;;;;;;;1.98;0.65;;;12.90;96.50;;;;;;5050945;28;20385;-59
2022/09/27 11:18:42;;;;;;;2.38;0.43;;;12.90;96.50;;;;;;5051394;28;20039;-56
2022/09/27 11:21:18;;;;;;;3.10;0.50;;;12.90;96.70;;;;;;5051041;28;20083;-55
2022/09/27 11:24:24;;;;;;;0.40;0.40;;;13.00;96.20;;;;;;5051244;28;20029;-65
2022/09/27 11:27:04;;;;;;;1.58;0.70;;;12.90;96.20;;;;;;5051575;28;20052;-57
2022/09/27 11:29:45;;;;;;;1.77;0.70;;;12.80;96.00;;;;;;5050280;28;20025;-58
2022/09/27 11:32:25;;;;;;;2.72;0.60;;;12.70;95.90;;;;;;5050784;28;20338;-56
2022/09/27 11:34:58;;;;;;;2.13;0.50;;;12.60;96.10;;;;;;5051406;28;20083;-57
2022/09/27 11:37:33;;;;;;;1.17;0.70;;;12.50;96.30;;;;;;5050315;28;20021;-62
2022/09/27 11:40:12;;;;;;;1.95;0.50;;;12.50;97.10;;;;;;5051245;28;20025;-63
2022/09/27 11:42:59;;;;;;;2.85;0.57;;;12.40;97.70;;;;;;5049239;28;20029;-59
2022/09/27 11:45:53;;;;;;;2.30;1.00;;;12.50;98.20;;;;;;5050772;28;20036;-62
2022/09/27 11:48:41;;;;;;;2.05;0.80;;;12.70;98.30;;;;;;5050620;28;20028;-52
2022/09/27 11:51:30;;;;;;;1.80;0.50;;;12.80;98.40;;;;;;5050252;28;20040;-58
2022/09/27 11:54:17;;;;;;;2.33;0.75;;;12.90;98.30;;;;;;5049501;28;20138;-52
2022/09/27 11:57:01;;;;;;;2.85;0.82;;;12.90;97.70;;;;;;5050579;28;20021;-52
2022/09/27 11:59:36;;;;;;;2.88;0.68;;;12.90;97.70;;;;;;5049398;28;20021;-62
2022/09/27 12:02:40;;;;;;;0.40;0.40;;;12.80;97.40;;;;;;5051039;28;20029;-57
2022/09/27 12:05:27;;;;;;;3.05;0.93;;;12.70;98.40;;;;;;5050059;28;20057;-54
2022/09/27 12:08:22;;;;;;;3.60;0.60;;;12.60;99.10;;;;;;5051202;28;20021;-54
2022/09/27 12:10:53;;;;;;;1.15;0.50;;;12.70;99.60;;;;;;5041861;28;20055;-56
2022/09/27 12:13:46;;;;;;;1.00;0.70;;;12.80;99.90;;;;;;5050530;28;20032;-58
2022/09/27 12:16:16;;;;;;;2.55;0.80;;;13.00;99.70;;;;;;5050133;28;20077;-58
2022/09/27 12:18:44;;;;;;;2.03;0.50;;;13.10;99.20;;;;;;5050506;28;20020;-51
2022/09/27 12:21:11;;;;;;;0.95;0.47;;;13.20;98.40;;;;;;5049450;28;20373;-56
2022/09/27 12:23:49;;;;;;;1.42;0.70;;;13.20;98.00;;;;;;5050868;28;20025;-52
2022/09/27 12:26:22;;;;;;;0.50;0.50;;;13.30;98.50;;;;;;5049753;28;20020;-55
2022/09/27 12:28:59;;;;;;;2.13;0.60;;;13.40;97.80;;;;;;5050737;28;20064;-51
2022/09/27 12:31:39;;;;;;;2.90;0.65;;;13.40;96.40;;;;;;5049811;28;20035;-67
2022/09/27 12:34:19;;;;;;;1.05;0.35;;;13.40;96.20;;;;;;5050610;28;20382;-56
2022/09/27 12:37:28;;;;;;;0.60;0.50;;;13.30;95.70;;;;;;5053155;28;20053;-62
2022/09/27 12:40:15;;;;;;;0.52;0.38;;;13.10;95.90;;;;;;5046492;28;20041;-49
2022/09/27 12:43:09;;;;;;;1.05;0.52;;;13.10;96.40;;;;;;5054537;28;20025;-53
2022/09/27 12:45:50;;;;;;;1.38;0.45;;;13.20;96.70;;;;;;5052511;28;20100;-56
2022/09/27 12:48:34;;;;;;;2.67;0.70;;;13.30;96.50;;;;;;5054064;28;20064;-66
2022/09/27 12:51:10;;;;;;;2.30;0.60;;;13.40;95.80;;;;;;5054285;28;20267;-49
2022/09/27 12:53:35;;;;;;;0.75;0.50;;;13.40;95.80;;;;;;5053302;28;20088;-51
2022/09/27 12:56:05;;;;;;;4.82;0.50;;;13.50;96.00;;;;;;5054000;28;20673;-53
2022/09/27 12:58:36;;;;;;;1.23;0.40;;;13.60;95.90;;;;;;5053889;28;20029;-53
2022/09/27 13:01:16;;;;;;;1.40;0.57;;;13.60;95.20;;;;;;5053286;28;20017;-56
2022/09/27 13:03:58;;;;;;;1.05;0.50;;;13.70;94.30;;;;;;5054135;28;20481;-53
2022/09/27 13:06:49;;;;;;;0.30;0.30;;;13.60;93.70;;;;;;5052195;28;20067;-55
2022/09/27 13:09:30;;;;;;;1.70;0.50;;;13.60;92.90;;;;;;5052298;28;20583;-54
2022/09/27 13:12:17;;;;;;;0.50;0.30;;;13.60;93.20;;;;;;5053965;28;20059;-61
2022/09/27 13:15:03;;;;;;;2.85;0.30;;;13.60;93.00;;;;;;5053675;28;20079;-56
2022/09/27 13:17:39;;;;;;;1.00;0.43;;;13.60;92.90;;;;;;5053439;28;20032;-56
2022/09/27 13:20:27;;;;;;;1.20;0.40;;;13.60;92.90;;;;;;5054040;28;20175;-64
2022/09/27 13:22:53;;;;;;;0.95;0.47;;;13.60;92.60;;;;;;5053189;28;20029;-51
2022/09/27 13:25:51;;;;;;;1.95;0.40;;;13.50;91.70;;;;;;5053088;28;20119;-56
2022/09/27 13:28:32;;;;;;;1.10;0.50;;;13.40;92.10;;;;;;5052458;28;20063;-59
2022/09/27 13:31:00;;;;;;;0.60;0.43;;;13.40;92.40;;;;;;5053626;28;20516;-54